Zarechensk — ONGC — position and weather

sailwx.info

Track history (hours):
 
Tides and Currents Weather Stations Pressure Air Temp Water Temp Dewpoint Dewpoint Depression Visibility Wind Speed Wind Dir Waves Ship Positions

Zarechensk

Last reported at 2015-Apr-18 10:16 UTC. Time now 2015-Apr-20 00:45 UTC.
Position N 35°60' W 005°26'.

Length 180 m; draft 6.1 m.

MMSI: 205561000.

Date/timePositionNaut miles runAvg speedWind from/ knotsBaromVisibWave heightAir tempDewpointWater temp
2015-Apr-18 10:16N 35°60' W 005°26'710.2
2015-Apr-18 09:33N 36°02' W 005°17'60013.0
2015-Apr-16 11:24N 37°31' E 007°03'1313.8
2015-Apr-16 10:27N 37°31' E 007°19'1413.4
2015-Apr-16 09:26N 37°34' E 007°37'1814.6
2015-Apr-16 08:09N 37°37' E 007°60'7 9.6
2015-Apr-16 07:28N 37°38' E 008°08'18012.8
2015-Apr-15 17:25N 37°12' E 011°52'1413.5
2015-Apr-15 16:22N 37°06' E 012°08'1113.4
2015-Apr-15 15:33N 37°03' E 012°21'1312.8
2015-Apr-15 14:32N 36°59' E 012°37'1212.7
2015-Apr-15 13:33N 36°55' E 012°52'1312.5
2015-Apr-15 12:32N 36°51' E 013°07'1212.5
2015-Apr-15 11:33N 36°48' E 013°22'1312.6
2015-Apr-15 10:33N 36°44' E 013°37'1312.9
2015-Apr-15 09:33N 36°40' E 013°52'1313.5
2015-Apr-15 08:34N 36°36' E 014°08'1413.6
2015-Apr-15 07:33N 36°33' E 014°24'1513.1
2015-Apr-15 06:25N 36°28' E 014°42'2613.0
2015-Apr-15 04:26N 36°27' E 015°14'24012.7
2015-Apr-14 09:34N 39°36' E 018°24'1413.7
2015-Apr-14 08:33N 39°48' E 018°31'1413.6
2015-Apr-14 07:33N 40°01' E 018°36'1414.1
2015-Apr-14 06:34N 40°15' E 018°35'1414.2
2015-Apr-14 05:33N 40°29' E 018°30'  
Track history (hours):
 
Tides and Currents Weather Stations Pressure Air Temp Water Temp Dewpoint Dewpoint Depression Visibility Wind Speed Wind Dir Waves Ship Positions

Zarechensk

Last reported at 2015-Apr-18 10:16 UTC. Time now 2015-Apr-20 00:45 UTC.
Position N 35°60' W 005°26'.

Length 180 m; draft 6.1 m.

MMSI: 205561000.

Date/timePositionNaut miles runAvg speedWind from/ knotsBaromVisibWave heightAir tempDewpointWater temp
2015-Apr-18 10:16N 35°60' W 005°26'710.2
2015-Apr-18 09:33N 36°02' W 005°17'60013.0
2015-Apr-16 11:24N 37°31' E 007°03'1313.8
2015-Apr-16 10:27N 37°31' E 007°19'1413.4
2015-Apr-16 09:26N 37°34' E 007°37'1814.6
2015-Apr-16 08:09N 37°37' E 007°60'7 9.6
2015-Apr-16 07:28N 37°38' E 008°08'18012.8
2015-Apr-15 17:25N 37°12' E 011°52'1413.5
2015-Apr-15 16:22N 37°06' E 012°08'1113.4
2015-Apr-15 15:33N 37°03' E 012°21'1312.8
2015-Apr-15 14:32N 36°59' E 012°37'1212.7
2015-Apr-15 13:33N 36°55' E 012°52'1312.5
2015-Apr-15 12:32N 36°51' E 013°07'1212.5
2015-Apr-15 11:33N 36°48' E 013°22'1312.6
2015-Apr-15 10:33N 36°44' E 013°37'1312.9
2015-Apr-15 09:33N 36°40' E 013°52'1313.5
2015-Apr-15 08:34N 36°36' E 014°08'1413.6
2015-Apr-15 07:33N 36°33' E 014°24'1513.1
2015-Apr-15 06:25N 36°28' E 014°42'2613.0
2015-Apr-15 04:26N 36°27' E 015°14'24012.7
2015-Apr-14 09:34N 39°36' E 018°24'1413.7
2015-Apr-14 08:33N 39°48' E 018°31'1413.6
2015-Apr-14 07:33N 40°01' E 018°36'1414.1
2015-Apr-14 06:34N 40°15' E 018°35'1414.2
2015-Apr-14 05:33N 40°29' E 018°30'  

Dump ship's entire track history